createdAt,value
2023-04-29T00:01:21.286Z,100547.25
2023-04-29T00:03:48.482Z,100524.78
2023-04-29T00:06:16.061Z,100545.44
2023-04-29T00:08:43.194Z,100530.56
2023-04-29T00:11:11.542Z,100566.25
2023-04-29T00:13:41.791Z,100568.34
2023-04-29T00:16:10.404Z,100483.69
2023-04-29T00:18:38.087Z,100558.81
2023-04-29T00:21:08.416Z,100556.50
2023-04-29T00:23:35.987Z,100568.84
2023-04-29T00:26:03.157Z,100572.63
2023-04-29T00:28:30.304Z,100575.59
2023-04-29T00:30:57.866Z,100573.66
2023-04-29T00:33:24.941Z,100491.22
2023-04-29T00:35:52.061Z,100567.72
2023-04-29T00:38:19.010Z,100569.44
2023-04-29T00:40:46.016Z,100558.28
2023-04-29T00:43:13.540Z,100576.78
2023-04-29T00:45:40.574Z,100584.25
2023-04-29T00:48:07.970Z,100585.47
2023-04-29T00:50:36.626Z,100563.97
2023-04-29T00:53:03.958Z,100603.59
2023-04-29T00:55:33.262Z,100594.69
2023-04-29T00:58:00.706Z,100577.22
2023-04-29T01:00:28.528Z,100609.66
2023-04-29T01:02:57.153Z,100618.22
2023-04-29T01:05:25.029Z,100615.66
2023-04-29T01:08:04.596Z,100624.78
2023-04-29T01:10:49.818Z,100609.34
2023-04-29T01:13:31.342Z,100623.66
2023-04-29T01:16:08.845Z,100616.91
2023-04-29T01:18:41.810Z,100640.53
2023-04-29T01:21:09.351Z,100620.59
2023-04-29T01:23:36.649Z,100647.16
2023-04-29T01:26:05.578Z,100649.50
2023-04-29T01:28:51.107Z,100654.88
2023-04-29T01:31:30.494Z,100650.47
2023-04-29T01:34:20.863Z,100628.97
2023-04-29T01:37:19.515Z,100654.91
2023-04-29T01:40:07.993Z,100657.13
2023-04-29T01:43:03.274Z,100663.88
2023-04-29T01:45:34.521Z,100667.78
2023-04-29T01:48:02.998Z,100663.00
2023-04-29T01:50:31.020Z,100675.00
2023-04-29T01:53:05.736Z,100666.69
2023-04-29T01:55:32.923Z,100651.72
2023-04-29T01:58:15.984Z,100661.16
2023-04-29T02:00:58.605Z,100683.09
2023-04-29T02:03:27.813Z,100683.22
2023-04-29T02:05:57.875Z,100678.53
2023-04-29T02:08:25.152Z,100703.03
2023-04-29T02:10:59.277Z,100695.66
2023-04-29T02:13:38.024Z,100717.84
2023-04-29T02:16:14.396Z,100712.81
2023-04-29T02:18:46.204Z,100702.16
2023-04-29T02:21:13.143Z,100715.16
2023-04-29T02:23:40.127Z,100700.06
2023-04-29T02:26:07.468Z,100726.25
2023-04-29T02:28:35.047Z,100739.72
2023-04-29T02:31:02.475Z,100729.28
2023-04-29T02:33:30.784Z,100743.63
2023-04-29T02:35:57.684Z,100743.50
2023-04-29T02:38:24.659Z,100724.41
2023-04-29T02:40:51.945Z,100730.03
2023-04-29T02:43:18.893Z,100737.72
2023-04-29T02:45:45.927Z,100732.81
2023-04-29T02:48:13.244Z,100749.47
2023-04-29T02:50:40.953Z,100749.03
2023-04-29T02:53:08.041Z,100739.72
2023-04-29T02:55:35.023Z,100736.28
2023-04-29T02:58:07.577Z,100735.88
2023-04-29T03:00:34.543Z,100725.31
2023-04-29T03:03:01.928Z,100708.91
2023-04-29T03:05:29.107Z,100751.53
2023-04-29T03:07:56.081Z,100756.56
2023-04-29T03:10:23.168Z,100765.81
2023-04-29T03:12:50.078Z,100774.91
2023-04-29T03:15:17.334Z,100746.78
2023-04-29T03:17:46.677Z,100761.88
2023-04-29T03:20:14.068Z,100760.28
2023-04-29T03:22:40.976Z,100764.09
2023-04-29T03:25:10.443Z,100779.53
2023-04-29T03:27:39.463Z,100767.00
2023-04-29T03:30:08.291Z,100793.75
2023-04-29T03:32:39.972Z,100806.22
2023-04-29T03:35:07.373Z,100805.09
2023-04-29T03:37:54.195Z,100786.19
2023-04-29T03:40:24.679Z,100809.63
2023-04-29T03:42:52.032Z,100817.81
2023-04-29T03:45:19.849Z,100816.00
2023-04-29T03:47:46.901Z,100804.69
2023-04-29T03:50:13.955Z,100808.88
2023-04-29T03:52:41.492Z,100805.56
2023-04-29T03:55:12.714Z,100816.34
2023-04-29T03:57:42.240Z,100797.44
2023-04-29T04:00:11.017Z,100829.88
2023-04-29T04:02:40.687Z,100804.28
2023-04-29T04:05:11.050Z,100816.81
2023-04-29T04:07:40.763Z,100820.31
2023-04-29T04:10:26.441Z,100820.31
2023-04-29T04:12:53.528Z,100843.28
2023-04-29T04:15:22.580Z,100811.66
2023-04-29T04:17:49.638Z,100847.84
2023-04-29T04:20:17.351Z,100842.38
2023-04-29T04:22:45.084Z,100835.78
2023-04-29T04:25:23.186Z,100861.38
2023-04-29T04:27:51.118Z,100849.19
2023-04-29T04:30:37.740Z,100868.19
2023-04-29T04:33:04.853Z,100859.66
2023-04-29T04:35:32.839Z,100874.16
2023-04-29T04:37:59.781Z,100856.13
2023-04-29T04:40:27.871Z,100859.88
2023-04-29T04:43:22.841Z,100845.91
2023-04-29T04:45:50.099Z,100865.06
2023-04-29T04:48:17.003Z,100877.22
2023-04-29T04:50:45.448Z,100862.50
2023-04-29T04:53:12.424Z,100884.97
2023-04-29T04:55:47.727Z,100899.28
2023-04-29T04:58:14.870Z,100898.09
2023-04-29T05:00:45.669Z,100911.44
2023-04-29T05:03:12.997Z,100902.41
2023-04-29T05:05:40.059Z,100923.78
2023-04-29T05:08:07.100Z,100897.00
2023-04-29T05:10:39.812Z,100912.25
2023-04-29T05:13:07.745Z,100906.53
2023-04-29T05:15:35.776Z,100933.31
2023-04-29T05:18:04.038Z,100901.28
2023-04-29T05:20:31.582Z,100912.47
2023-04-29T05:23:01.247Z,100928.91
2023-04-29T05:25:30.355Z,100930.00
2023-04-29T05:27:57.713Z,100943.00
2023-04-29T05:30:27.078Z,100953.44
2023-04-29T05:32:54.311Z,100947.47
2023-04-29T05:35:22.348Z,100927.19
2023-04-29T05:37:49.572Z,100909.88
2023-04-29T05:40:40.735Z,100946.88
2023-04-29T05:43:41.407Z,100959.81
2023-04-29T05:46:08.499Z,100940.91
2023-04-29T05:48:35.424Z,100897.38
2023-04-29T05:51:02.426Z,100957.69
2023-04-29T05:53:29.544Z,100984.09
2023-04-29T05:55:56.603Z,100986.56
2023-04-29T05:58:24.003Z,100980.13
2023-04-29T06:00:51.677Z,100978.91
2023-04-29T06:03:22.910Z,100994.66
2023-04-29T06:06:03.218Z,101007.84
2023-04-29T06:08:56.718Z,100990.88
2023-04-29T06:11:27.282Z,101001.19
2023-04-29T06:13:54.261Z,101017.34
2023-04-29T06:16:21.416Z,101013.03
2023-04-29T06:18:48.377Z,101024.63
2023-04-29T06:21:16.230Z,100992.47
2023-04-29T06:23:43.527Z,101027.44
2023-04-29T06:26:16.264Z,100988.06
2023-04-29T06:28:43.240Z,101025.41
2023-04-29T06:31:10.348Z,101009.56
2023-04-29T06:33:37.395Z,101025.16
2023-04-29T06:36:05.988Z,101050.72
2023-04-29T06:38:57.360Z,101036.53
2023-04-29T06:41:59.983Z,101048.06
2023-04-29T06:44:27.600Z,101032.66
2023-04-29T06:47:20.127Z,101067.66
2023-04-29T06:50:07.093Z,101067.00
2023-04-29T06:52:34.521Z,101073.34
2023-04-29T06:55:01.669Z,101064.84
2023-04-29T06:57:28.614Z,101060.59
2023-04-29T06:59:55.560Z,101077.69
2023-04-29T07:02:22.613Z,101090.16
2023-04-29T07:04:50.981Z,101096.97
2023-04-29T07:07:18.031Z,101092.88
2023-04-29T07:09:44.991Z,101115.34
2023-04-29T07:12:11.866Z,101086.47
2023-04-29T07:14:39.067Z,101094.91
2023-04-29T07:17:06.334Z,101085.78
2023-04-29T07:19:33.363Z,101091.34
2023-04-29T07:22:00.400Z,101090.72
2023-04-29T07:24:27.473Z,101063.69
2023-04-29T07:26:54.417Z,101123.13
2023-04-29T07:29:21.494Z,101118.00
2023-04-29T07:31:48.553Z,101087.75
2023-04-29T07:34:15.728Z,101099.97
2023-04-29T07:36:43.708Z,101110.88
2023-04-29T07:39:12.495Z,101099.75
2023-04-29T07:41:39.535Z,101106.25
2023-04-29T07:44:06.482Z,101125.69
2023-04-29T07:46:33.452Z,101122.91
2023-04-29T07:49:00.509Z,101153.47
2023-04-29T07:51:29.131Z,101122.75
2023-04-29T07:53:56.172Z,101117.88
2023-04-29T07:56:23.728Z,101153.25
2023-04-29T07:58:50.819Z,101155.84
2023-04-29T08:01:17.779Z,101171.06
2023-04-29T08:03:45.823Z,101172.19
2023-04-29T08:06:13.890Z,101163.19
2023-04-29T08:08:42.568Z,101166.38
2023-04-29T08:11:19.508Z,101182.72
2023-04-29T08:13:47.807Z,101177.78
2023-04-29T08:16:14.754Z,101161.97
2023-04-29T08:18:42.578Z,101186.78
2023-04-29T08:21:11.746Z,101195.88
2023-04-29T08:23:39.929Z,101174.84
2023-04-29T08:26:06.836Z,101171.16
2023-04-29T08:28:33.785Z,101202.28
2023-04-29T08:31:00.851Z,101206.59
2023-04-29T08:33:28.567Z,101219.63
2023-04-29T08:36:00.357Z,101216.53
2023-04-29T08:38:28.365Z,101215.78
2023-04-29T08:40:56.309Z,101213.59
2023-04-29T08:43:23.640Z,101206.13
2023-04-29T08:45:50.617Z,101214.09
2023-04-29T08:48:18.580Z,101208.69
2023-04-29T08:50:46.185Z,101235.63
2023-04-29T08:53:14.550Z,101216.28
2023-04-29T08:55:44.416Z,101225.16
2023-04-29T08:58:13.857Z,101234.88
2023-04-29T09:00:43.271Z,101261.19
2023-04-29T09:03:30.412Z,101255.16
2023-04-29T09:06:01.779Z,101275.22
2023-04-29T09:08:30.058Z,101249.75
2023-04-29T09:10:57.971Z,101254.56
2023-04-29T09:13:27.127Z,101267.81
2023-04-29T09:15:54.848Z,101267.22
2023-04-29T09:18:51.238Z,101266.84
2023-04-29T09:21:21.743Z,101273.66
2023-04-29T09:23:55.024Z,101269.53
2023-04-29T09:26:22.813Z,101272.63
2023-04-29T09:29:09.331Z,101271.41
2023-04-29T09:31:39.497Z,101281.59
2023-04-29T09:34:06.797Z,101284.72
2023-04-29T09:36:48.467Z,101255.44
2023-04-29T09:39:18.469Z,101280.84
2023-04-29T09:41:54.437Z,101284.97
2023-04-29T09:44:34.601Z,101267.25
2023-04-29T09:47:10.043Z,101283.03
2023-04-29T09:49:42.424Z,101249.25
2023-04-29T09:52:13.348Z,101274.41
2023-04-29T09:54:41.940Z,101271.31
2023-04-29T09:57:11.397Z,101284.81
2023-04-29T09:59:40.652Z,101279.03
2023-04-29T10:02:20.968Z,101267.25
2023-04-29T10:04:57.818Z,101261.47
2023-04-29T10:07:28.086Z,101299.09
2023-04-29T10:09:56.087Z,101294.25
2023-04-29T10:12:24.026Z,101267.66
2023-04-29T10:15:04.393Z,101281.66
2023-04-29T10:17:55.541Z,101300.41
2023-04-29T10:20:24.584Z,101298.44
2023-04-29T10:22:57.813Z,101302.16
2023-04-29T10:25:28.298Z,101289.06
2023-04-29T10:27:56.375Z,101308.69
2023-04-29T10:30:23.566Z,101289.91
2023-04-29T10:32:52.771Z,101287.56
2023-04-29T10:35:24.436Z,101283.66
2023-04-29T10:37:52.943Z,101286.75
2023-04-29T10:40:37.060Z,101290.22
2023-04-29T10:43:04.722Z,101284.50
2023-04-29T10:45:35.949Z,101289.94
2023-04-29T10:48:03.015Z,101297.09
2023-04-29T10:50:30.858Z,101295.38
2023-04-29T10:52:58.842Z,101291.94
2023-04-29T10:55:25.905Z,101283.75
2023-04-29T10:57:57.125Z,101276.16
2023-04-29T11:00:28.124Z,101295.53
2023-04-29T11:02:59.401Z,101280.28
2023-04-29T11:05:37.214Z,101296.63
2023-04-29T11:08:22.638Z,101295.94
2023-04-29T11:11:02.078Z,101298.94
2023-04-29T11:13:34.268Z,101283.91
2023-04-29T11:16:05.824Z,101303.84
2023-04-29T11:18:37.191Z,101286.91
2023-04-29T11:21:07.017Z,101297.25
2023-04-29T11:23:45.122Z,101293.38
2023-04-29T11:26:12.063Z,101269.44
2023-04-29T11:28:42.010Z,101302.94
2023-04-29T11:31:09.063Z,101284.97
2023-04-29T11:33:36.130Z,101272.38
2023-04-29T11:36:03.596Z,101305.72
2023-04-29T11:38:31.354Z,101293.28
2023-04-29T11:40:59.992Z,101286.03
2023-04-29T11:43:26.980Z,101278.13
2023-04-29T11:45:54.445Z,101322.66
2023-04-29T11:48:26.051Z,101315.25
2023-04-29T11:50:57.867Z,101323.56
2023-04-29T11:53:27.749Z,101304.06
2023-04-29T11:55:55.756Z,101298.81
2023-04-29T11:58:24.321Z,101292.94
2023-04-29T12:00:54.551Z,101318.56
2023-04-29T12:03:22.136Z,101293.09
2023-04-29T12:05:53.120Z,101312.28
2023-04-29T12:08:27.999Z,101325.56
2023-04-29T12:10:57.526Z,101333.59
2023-04-29T12:13:29.718Z,101330.88
2023-04-29T12:15:58.559Z,101329.78
2023-04-29T12:18:27.597Z,101331.81
2023-04-29T12:20:56.048Z,101340.72
2023-04-29T12:23:28.384Z,101346.13
2023-04-29T12:25:57.317Z,101329.72
2023-04-29T12:28:25.002Z,101314.75
2023-04-29T12:30:54.403Z,101333.78
2023-04-29T12:33:29.732Z,101348.34
2023-04-29T12:35:58.935Z,101349.06
2023-04-29T12:38:31.201Z,101334.25
2023-04-29T12:41:02.025Z,101315.94
2023-04-29T12:43:31.694Z,101342.16
2023-04-29T12:46:08.043Z,101344.06
2023-04-29T12:48:39.216Z,101352.50
2023-04-29T12:51:09.861Z,101339.63
2023-04-29T12:53:36.873Z,101333.50
2023-04-29T12:56:04.788Z,101330.16
2023-04-29T12:58:34.862Z,101351.66
2023-04-29T13:01:01.896Z,101327.75
2023-04-29T13:03:29.111Z,101343.53
2023-04-29T13:05:56.373Z,101350.84
2023-04-29T13:08:23.343Z,101340.72
2023-04-29T13:10:50.922Z,101363.44
2023-04-29T13:13:17.864Z,101355.00
2023-04-29T13:15:44.852Z,101344.59
2023-04-29T13:18:11.959Z,101343.91
2023-04-29T13:20:42.070Z,101349.03
2023-04-29T13:23:10.662Z,101350.19
2023-04-29T13:25:37.572Z,101332.06
2023-04-29T13:28:07.827Z,101367.00
2023-04-29T13:30:35.028Z,101337.81
2023-04-29T13:33:09.615Z,101344.59
2023-04-29T13:35:40.681Z,101348.69
2023-04-29T13:38:10.708Z,101353.75
2023-04-29T13:40:41.715Z,101335.66
2023-04-29T13:43:13.892Z,101357.19
2023-04-29T13:45:46.433Z,101347.38
2023-04-29T13:48:34.837Z,101338.56
2023-04-29T13:56:58.181Z,101333.47
2023-04-29T14:01:55.256Z,101342.38
2023-04-29T14:04:07.038Z,101333.06
2023-04-29T14:06:34.886Z,101297.66
2023-04-29T14:09:03.693Z,101296.44
2023-04-29T14:11:31.113Z,101302.31
2023-04-29T14:13:58.102Z,101329.72
2023-04-29T14:16:25.463Z,101360.13
2023-04-29T14:18:52.358Z,101336.19
2023-04-29T14:21:22.361Z,101355.06
2023-04-29T14:23:50.562Z,101352.81
2023-04-29T14:26:27.782Z,101350.91
2023-04-29T14:28:59.983Z,101295.56
2023-04-29T14:31:30.059Z,101305.09
2023-04-29T14:33:58.022Z,101327.78
2023-04-29T14:36:26.500Z,101370.44
2023-04-29T14:41:34.689Z,101307.09
2023-04-29T14:44:01.738Z,101352.13
2023-04-29T14:46:29.505Z,101342.47
2023-04-29T14:48:56.539Z,101387.78
2023-04-29T14:51:23.668Z,101363.59
2023-04-29T14:53:51.536Z,101349.19
2023-04-29T14:59:00.677Z,101385.88
2023-04-29T15:01:45.503Z,101389.50
2023-04-29T15:04:14.133Z,101388.50
2023-04-29T15:06:41.432Z,101366.81
2023-04-29T15:09:08.554Z,101353.88
2023-04-29T15:11:35.481Z,101350.53
2023-04-29T15:14:02.422Z,101321.53
2023-04-29T15:16:30.356Z,101401.59
2023-04-29T15:18:57.773Z,101394.56
2023-04-29T15:21:24.713Z,101373.69
2023-04-29T15:23:51.736Z,101365.41
2023-04-29T15:26:19.666Z,101343.78
2023-04-29T15:28:46.719Z,101397.50
2023-04-29T15:31:13.685Z,101385.75
2023-04-29T15:33:40.628Z,101380.63
2023-04-29T15:36:07.892Z,101368.56
2023-04-29T15:38:34.799Z,101403.19
2023-04-29T15:41:02.837Z,101414.66
2023-04-29T15:43:31.817Z,101398.34
2023-04-29T15:45:59.558Z,101412.69
2023-04-29T15:48:26.654Z,101396.50
2023-04-29T15:50:53.688Z,101421.53
2023-04-29T15:53:20.838Z,101408.91
2023-04-29T15:55:47.739Z,101425.47
2023-04-29T15:58:14.825Z,101420.28
2023-04-29T16:00:41.754Z,101416.00
2023-04-29T16:03:08.872Z,101414.25
2023-04-29T16:05:37.012Z,101422.84
2023-04-29T16:08:04.746Z,101413.78
2023-04-29T16:10:38.857Z,101436.28
2023-04-29T16:13:05.990Z,101431.16
2023-04-29T16:15:33.004Z,101435.69
2023-04-29T16:18:01.610Z,101445.56
2023-04-29T16:20:28.597Z,101445.47
2023-04-29T16:22:55.562Z,101436.09
2023-04-29T16:25:22.872Z,101446.09
2023-04-29T16:27:49.785Z,101433.16
2023-04-29T16:30:16.737Z,101451.06
2023-04-29T16:32:43.749Z,101447.16
2023-04-29T16:35:11.314Z,101462.69
2023-04-29T16:37:38.705Z,101456.69
2023-04-29T16:40:06.877Z,101438.38
2023-04-29T16:42:33.760Z,101456.72
2023-04-29T16:45:00.702Z,101444.66
2023-04-29T16:47:27.669Z,101454.75
2023-04-29T16:49:55.500Z,101460.50
2023-04-29T16:52:22.614Z,101464.22
2023-04-29T16:54:49.609Z,101460.09
2023-04-29T16:57:16.548Z,101463.13
2023-04-29T16:59:43.443Z,101464.84
2023-04-29T17:02:10.356Z,101475.03
2023-04-29T17:04:37.570Z,101466.44
2023-04-29T17:07:04.854Z,101476.88
2023-04-29T17:09:31.735Z,101482.50
2023-04-29T17:11:58.654Z,101494.94
2023-04-29T17:14:26.300Z,101480.13
2023-04-29T17:16:53.813Z,101483.34
2023-04-29T17:19:20.911Z,101508.78
2023-04-29T17:21:48.370Z,101489.84
2023-04-29T17:24:16.232Z,101506.47
2023-04-29T17:26:43.337Z,101482.72
2023-04-29T17:29:12.118Z,101511.50
2023-04-29T17:31:45.250Z,101480.81
2023-04-29T17:34:23.689Z,101516.81
2023-04-29T17:36:52.639Z,101508.50
2023-04-29T17:39:19.811Z,101518.03
2023-04-29T17:41:46.804Z,101514.38
2023-04-29T17:44:13.812Z,101513.06
2023-04-29T17:46:40.955Z,101513.84
2023-04-29T17:49:07.876Z,101516.13
2023-04-29T17:51:34.928Z,101520.19
2023-04-29T17:54:05.431Z,101522.66
2023-04-29T17:56:34.786Z,101505.00
2023-04-29T17:59:05.035Z,101538.59
2023-04-29T18:01:33.040Z,101516.66
2023-04-29T18:04:00.211Z,101531.06
2023-04-29T18:06:30.168Z,101529.47
2023-04-29T18:08:57.283Z,101516.00
2023-04-29T18:11:25.091Z,101543.72
2023-04-29T18:13:53.851Z,101527.09
2023-04-29T18:16:20.922Z,101530.03
2023-04-29T18:18:49.782Z,101539.88
2023-04-29T18:21:24.629Z,101537.78
2023-04-29T18:23:51.638Z,101512.94
2023-04-29T18:26:18.584Z,101505.63
2023-04-29T18:28:46.373Z,101553.66
2023-04-29T18:31:15.584Z,101546.50
2023-04-29T18:33:43.588Z,101552.91
2023-04-29T18:36:11.179Z,101550.44
2023-04-29T18:38:38.109Z,101543.44
2023-04-29T18:41:06.606Z,101561.69
2023-04-29T18:43:33.608Z,101540.13
2023-04-29T18:46:00.747Z,101566.25
2023-04-29T18:48:29.749Z,101570.94
2023-04-29T18:51:03.744Z,101577.97
2023-04-29T18:53:31.539Z,101577.53
2023-04-29T18:55:58.465Z,101577.75
2023-04-29T18:58:28.374Z,101579.94
2023-04-29T19:00:57.691Z,101578.78
2023-04-29T19:03:24.706Z,101593.19
2023-04-29T19:05:52.145Z,101610.53
2023-04-29T19:08:19.341Z,101605.38
2023-04-29T19:10:46.474Z,101613.97
2023-04-29T19:13:13.358Z,101615.25
2023-04-29T19:15:40.881Z,101620.78
2023-04-29T19:18:07.899Z,101629.38
2023-04-29T19:20:35.025Z,101632.63
2023-04-29T19:23:02.230Z,101623.88
2023-04-29T19:25:30.569Z,101643.03
2023-04-29T19:27:57.501Z,101636.97
2023-04-29T19:30:24.701Z,101610.66
2023-04-29T19:32:51.687Z,101637.22
2023-04-29T19:35:18.657Z,101653.88
2023-04-29T19:37:45.729Z,101620.06
2023-04-29T19:40:12.802Z,101657.31
2023-04-29T19:42:40.039Z,101634.19
2023-04-29T19:45:08.390Z,101648.66
2023-04-29T19:47:36.168Z,101644.22
2023-04-29T19:50:04.690Z,101645.84
2023-04-29T19:52:31.578Z,101651.53
2023-04-29T19:54:58.488Z,101662.66
2023-04-29T19:57:26.175Z,101647.75
2023-04-29T19:59:53.368Z,101666.16
2023-04-29T20:02:20.419Z,101655.03
2023-04-29T20:04:48.237Z,101671.13
2023-04-29T20:07:15.254Z,101677.19
2023-04-29T20:09:42.164Z,101684.78
2023-04-29T20:12:09.058Z,101668.47
2023-04-29T20:14:36.412Z,101676.47
2023-04-29T20:17:03.583Z,101690.06
2023-04-29T20:19:31.341Z,101661.31
2023-04-29T20:21:58.367Z,101675.44
2023-04-29T20:24:25.387Z,101682.34
2023-04-29T20:26:53.007Z,101686.13
2023-04-29T20:29:19.923Z,101685.06
2023-04-29T20:31:47.466Z,101687.13
2023-04-29T20:34:14.468Z,101706.50
2023-04-29T20:36:41.390Z,101700.75
2023-04-29T20:39:09.009Z,101702.34
2023-04-29T20:41:35.968Z,101704.72
2023-04-29T20:44:04.490Z,101706.63
2023-04-29T20:46:31.772Z,101714.31
2023-04-29T20:48:58.731Z,101714.53
2023-04-29T20:51:26.748Z,101711.72
2023-04-29T20:53:53.699Z,101708.28
2023-04-29T20:56:20.620Z,101722.84
2023-04-29T20:58:47.605Z,101729.94
2023-04-29T21:01:14.753Z,101705.94
2023-04-29T21:03:41.799Z,101730.78
2023-04-29T21:06:08.773Z,101736.00
2023-04-29T21:08:35.725Z,101726.28
2023-04-29T21:11:02.760Z,101724.31
2023-04-29T21:13:30.034Z,101740.72
2023-04-29T21:15:57.002Z,101741.06
2023-04-29T21:18:24.277Z,101729.97
2023-04-29T21:20:51.255Z,101750.94
2023-04-29T21:23:18.204Z,101730.25
2023-04-29T21:25:45.188Z,101737.19
2023-04-29T21:28:12.838Z,101760.44
2023-04-29T21:30:40.900Z,101763.47
2023-04-29T21:33:07.899Z,101751.25
2023-04-29T21:35:34.898Z,101769.34
2023-04-29T21:38:01.812Z,101759.47
2023-04-29T21:40:28.893Z,101754.97
2023-04-29T21:42:58.153Z,101760.88
2023-04-29T21:45:26.236Z,101775.06
2023-04-29T21:47:55.455Z,101764.41
2023-04-29T21:50:22.542Z,101755.94
2023-04-29T21:52:50.572Z,101767.38
2023-04-29T21:55:17.679Z,101776.03
2023-04-29T21:57:45.447Z,101752.44
2023-04-29T22:00:32.631Z,101768.75
2023-04-29T22:03:16.653Z,101768.44
2023-04-29T22:05:44.011Z,101758.22
2023-04-29T22:08:11.419Z,101764.47
2023-04-29T22:10:40.141Z,101755.41
2023-04-29T22:13:10.488Z,101760.50
2023-04-29T22:15:37.389Z,101766.63
2023-04-29T22:18:04.339Z,101739.28
2023-04-29T22:20:31.717Z,101747.63
2023-04-29T22:22:59.576Z,101771.69
2023-04-29T22:25:26.786Z,101774.53
2023-04-29T22:27:53.823Z,101764.50
2023-04-29T22:30:20.866Z,101774.03
2023-04-29T22:32:47.876Z,101760.00
2023-04-29T22:35:14.924Z,101776.06
2023-04-29T22:37:41.902Z,101769.38
2023-04-29T22:40:09.774Z,101782.56
2023-04-29T22:42:36.805Z,101768.25
2023-04-29T22:45:04.067Z,101777.38
2023-04-29T22:47:33.775Z,101785.78
2023-04-29T22:50:00.766Z,101796.72
2023-04-29T22:52:27.766Z,101796.91
2023-04-29T22:54:54.853Z,101796.19
2023-04-29T22:57:21.753Z,101804.44
2023-04-29T22:59:49.232Z,101803.56
2023-04-29T23:02:16.143Z,101798.63
2023-04-29T23:04:43.119Z,101787.59
2023-04-29T23:07:10.076Z,101806.31
2023-04-29T23:09:36.992Z,101798.75
2023-04-29T23:12:04.037Z,101811.09
2023-04-29T23:14:31.371Z,101792.78
2023-04-29T23:16:58.297Z,101813.31
2023-04-29T23:19:25.183Z,101788.25
2023-04-29T23:21:52.136Z,101786.56
2023-04-29T23:24:19.142Z,101798.03
2023-04-29T23:26:45.993Z,101784.72
2023-04-29T23:29:12.986Z,101805.78
2023-04-29T23:31:39.896Z,101800.34
2023-04-29T23:34:07.844Z,101813.38
2023-04-29T23:36:34.898Z,101807.28
2023-04-29T23:39:01.824Z,101821.19
2023-04-29T23:41:29.035Z,101806.44
2023-04-29T23:44:00.918Z,101798.75
2023-04-29T23:46:27.969Z,101817.31
2023-04-29T23:48:57.829Z,101803.19
2023-04-29T23:51:26.205Z,101823.88
2023-04-29T23:53:53.132Z,101795.06
2023-04-29T23:56:20.112Z,101813.38
2023-04-29T23:58:46.982Z,101808.28
